Terminal Aerodrome Forecast
Issued by NWS

Current Version | Previous Version | Text Only | Print | Product List | Glossary Off
Versions: 1 2 3 4 5 6 7 8 9 10 11 12 13 14 15 16 17 18 19 20 21 22 23 24 25

000
FTUS41 KRNK 270044 AAA
TAFLWB
TAF AMD
KLWB 270044Z 2701/2724 01005KT P6SM VCTS SCT040CB BKN090
      TEMPO 2701/2702 27010G20KT 3SM TSRA BKN030CB
     FM270400 00000KT 4SM BR BKN250
     FM271000 00000KT 1/4SM FG OVC001
     FM271300 26005KT P6SM SCT015 OVC035
     FM271800 29004KT P6SM VCTS BKN040CB=

USA.gov is the U.S. government's official web portal to all federal, state and local government web resources and services.